sensor_id;sensor_type;location;lat;lon;timestamp;pressure;altitude;pressure_sealevel;temperature;humidity
42411;BME280;28056;51.112;0.984;2023-07-13T00:04:53;100589.07;;;16.02;67.80
42411;BME280;28056;51.112;0.984;2023-07-13T00:07:21;100587.01;;;16.90;65.30
42411;BME280;28056;51.112;0.984;2023-07-13T00:09:48;100587.64;;;16.65;66.14
42411;BME280;28056;51.112;0.984;2023-07-13T00:12:27;100584.48;;;16.63;66.58
42411;BME280;28056;51.112;0.984;2023-07-13T00:14:55;100582.00;;;17.01;66.02
42411;BME280;28056;51.112;0.984;2023-07-13T00:17:23;100578.43;;;16.73;66.34
42411;BME280;28056;51.112;0.984;2023-07-13T00:19:50;100582.37;;;16.89;65.85
42411;BME280;28056;51.112;0.984;2023-07-13T00:22:18;100585.48;;;16.67;66.60
42411;BME280;28056;51.112;0.984;2023-07-13T00:24:46;100585.28;;;16.55;66.74
42411;BME280;28056;51.112;0.984;2023-07-13T00:27:14;100583.31;;;16.53;65.65
42411;BME280;28056;51.112;0.984;2023-07-13T00:29:42;100580.30;;;16.89;65.43
42411;BME280;28056;51.112;0.984;2023-07-13T00:32:10;100580.00;;;16.77;67.00
42411;BME280;28056;51.112;0.984;2023-07-13T00:34:37;100583.03;;;16.87;66.36
42411;BME280;28056;51.112;0.984;2023-07-13T00:37:06;100583.16;;;16.32;68.01
42411;BME280;28056;51.112;0.984;2023-07-13T00:39:34;100584.15;;;16.63;67.04
42411;BME280;28056;51.112;0.984;2023-07-13T00:42:03;100586.18;;;16.39;68.45
42411;BME280;28056;51.112;0.984;2023-07-13T00:47:38;100588.41;;;16.72;68.13
42411;BME280;28056;51.112;0.984;2023-07-13T00:50:08;100590.45;;;16.33;67.61
42411;BME280;28056;51.112;0.984;2023-07-13T00:52:40;100590.98;;;16.46;67.08
42411;BME280;28056;51.112;0.984;2023-07-13T00:55:09;100590.40;;;16.66;66.13
42411;BME280;28056;51.112;0.984;2023-07-13T00:57:38;100593.79;;;17.06;64.13
42411;BME280;28056;51.112;0.984;2023-07-13T01:00:08;100591.46;;;17.08;63.28
42411;BME280;28056;51.112;0.984;2023-07-13T01:02:36;100594.32;;;17.37;63.02
42411;BME280;28056;51.112;0.984;2023-07-13T01:05:09;100594.26;;;17.14;63.59
42411;BME280;28056;51.112;0.984;2023-07-13T01:07:37;100596.42;;;17.05;64.39
42411;BME280;28056;51.112;0.984;2023-07-13T01:10:04;100598.74;;;17.05;62.88
42411;BME280;28056;51.112;0.984;2023-07-13T01:12:31;100600.27;;;17.34;63.13
42411;BME280;28056;51.112;0.984;2023-07-13T01:14:59;100595.62;;;17.39;62.61
42411;BME280;28056;51.112;0.984;2023-07-13T01:17:27;100594.48;;;17.13;63.58
42411;BME280;28056;51.112;0.984;2023-07-13T01:19:55;100594.72;;;17.24;62.23
42411;BME280;28056;51.112;0.984;2023-07-13T01:22:23;100595.43;;;17.26;62.95
42411;BME280;28056;51.112;0.984;2023-07-13T01:24:51;100596.75;;;16.74;64.28
42411;BME280;28056;51.112;0.984;2023-07-13T01:27:25;100595.17;;;17.03;63.84
42411;BME280;28056;51.112;0.984;2023-07-13T01:29:53;100596.31;;;17.16;62.54
42411;BME280;28056;51.112;0.984;2023-07-13T01:32:23;100595.96;;;16.88;63.38
42411;BME280;28056;51.112;0.984;2023-07-13T01:34:51;100594.04;;;16.81;64.03
42411;BME280;28056;51.112;0.984;2023-07-13T01:37:18;100592.12;;;16.48;65.14
42411;BME280;28056;51.112;0.984;2023-07-13T01:39:46;100589.64;;;16.84;64.13
42411;BME280;28056;51.112;0.984;2023-07-13T01:42:13;100592.58;;;17.01;63.31
42411;BME280;28056;51.112;0.984;2023-07-13T01:44:41;100593.41;;;16.95;63.88
42411;BME280;28056;51.112;0.984;2023-07-13T01:47:09;100601.73;;;16.97;63.58
42411;BME280;28056;51.112;0.984;2023-07-13T01:49:36;100606.00;;;16.89;61.28
42411;BME280;28056;51.112;0.984;2023-07-13T01:52:05;100604.66;;;17.20;61.06
42411;BME280;28056;51.112;0.984;2023-07-13T01:54:32;100606.27;;;17.23;60.97
42411;BME280;28056;51.112;0.984;2023-07-13T01:56:59;100603.22;;;17.46;62.23
42411;BME280;28056;51.112;0.984;2023-07-13T01:59:27;100607.17;;;17.44;60.92
42411;BME280;28056;51.112;0.984;2023-07-13T02:01:54;100605.65;;;17.24;61.60
42411;BME280;28056;51.112;0.984;2023-07-13T02:04:22;100601.96;;;16.61;63.82
42411;BME280;28056;51.112;0.984;2023-07-13T02:06:49;100602.06;;;16.58;63.29
42411;BME280;28056;51.112;0.984;2023-07-13T02:09:17;100601.73;;;16.80;63.03
42411;BME280;28056;51.112;0.984;2023-07-13T02:11:44;100604.63;;;17.10;61.84
42411;BME280;28056;51.112;0.984;2023-07-13T02:14:12;100603.33;;;16.79;62.54
42411;BME280;28056;51.112;0.984;2023-07-13T02:16:39;100606.67;;;17.05;61.58
42411;BME280;28056;51.112;0.984;2023-07-13T02:19:07;100604.52;;;16.39;62.81
42411;BME280;28056;51.112;0.984;2023-07-13T02:21:36;100605.81;;;17.04;61.23
42411;BME280;28056;51.112;0.984;2023-07-13T02:24:04;100605.10;;;17.03;60.55
42411;BME280;28056;51.112;0.984;2023-07-13T02:26:31;100601.04;;;17.16;60.89
42411;BME280;28056;51.112;0.984;2023-07-13T02:28:59;100602.22;;;16.81;61.75
42411;BME280;28056;51.112;0.984;2023-07-13T02:31:27;100599.77;;;16.74;62.80
42411;BME280;28056;51.112;0.984;2023-07-13T02:33:54;100602.18;;;17.32;60.02
42411;BME280;28056;51.112;0.984;2023-07-13T02:36:21;100600.56;;;17.19;59.65
42411;BME280;28056;51.112;0.984;2023-07-13T02:38:50;100602.20;;;17.34;59.58
42411;BME280;28056;51.112;0.984;2023-07-13T02:41:17;100602.02;;;17.27;58.90
42411;BME280;28056;51.112;0.984;2023-07-13T02:43:45;100600.15;;;17.06;58.96
42411;BME280;28056;51.112;0.984;2023-07-13T02:46:12;100600.83;;;17.37;59.38
42411;BME280;28056;51.112;0.984;2023-07-13T02:48:40;100599.20;;;17.34;58.19
42411;BME280;28056;51.112;0.984;2023-07-13T02:51:08;100598.51;;;17.40;57.92
42411;BME280;28056;51.112;0.984;2023-07-13T02:53:35;100599.52;;;17.43;57.58
42411;BME280;28056;51.112;0.984;2023-07-13T02:56:03;100600.87;;;17.44;57.58
42411;BME280;28056;51.112;0.984;2023-07-13T02:58:31;100599.94;;;17.65;57.42
42411;BME280;28056;51.112;0.984;2023-07-13T03:00:59;100600.95;;;17.48;57.11
42411;BME280;28056;51.112;0.984;2023-07-13T03:03:33;100604.36;;;17.47;57.24
42411;BME280;28056;51.112;0.984;2023-07-13T03:06:02;100606.12;;;17.72;57.86
42411;BME280;28056;51.112;0.984;2023-07-13T03:08:30;100606.96;;;17.34;58.43
42411;BME280;28056;51.112;0.984;2023-07-13T03:11:00;100607.39;;;17.15;59.55
42411;BME280;28056;51.112;0.984;2023-07-13T03:13:27;100607.77;;;17.53;59.35
42411;BME280;28056;51.112;0.984;2023-07-13T03:15:55;100609.63;;;17.42;60.08
42411;BME280;28056;51.112;0.984;2023-07-13T03:18:22;100608.26;;;17.33;59.98
42411;BME280;28056;51.112;0.984;2023-07-13T03:20:50;100609.59;;;17.13;60.88
42411;BME280;28056;51.112;0.984;2023-07-13T03:23:17;100611.69;;;16.95;61.99
42411;BME280;28056;51.112;0.984;2023-07-13T03:25:45;100613.45;;;17.23;60.53
42411;BME280;28056;51.112;0.984;2023-07-13T03:28:13;100610.46;;;17.18;59.94
42411;BME280;28056;51.112;0.984;2023-07-13T03:30:41;100610.71;;;17.01;59.43
42411;BME280;28056;51.112;0.984;2023-07-13T03:33:08;100612.94;;;17.06;58.86
42411;BME280;28056;51.112;0.984;2023-07-13T03:35:40;100614.30;;;17.16;59.36
42411;BME280;28056;51.112;0.984;2023-07-13T03:38:08;100617.23;;;17.27;58.28
42411;BME280;28056;51.112;0.984;2023-07-13T03:40:36;100618.56;;;17.29;58.20
42411;BME280;28056;51.112;0.984;2023-07-13T03:43:03;100619.32;;;16.89;57.95
42411;BME280;28056;51.112;0.984;2023-07-13T03:45:30;100619.68;;;17.31;58.26
42411;BME280;28056;51.112;0.984;2023-07-13T03:47:58;100618.43;;;17.05;58.22
42411;BME280;28056;51.112;0.984;2023-07-13T03:50:26;100617.10;;;17.13;59.41
42411;BME280;28056;51.112;0.984;2023-07-13T03:52:53;100619.10;;;17.10;58.32
42411;BME280;28056;51.112;0.984;2023-07-13T03:55:21;100621.82;;;17.21;57.88
42411;BME280;28056;51.112;0.984;2023-07-13T03:57:54;100623.88;;;17.41;57.69
42411;BME280;28056;51.112;0.984;2023-07-13T04:00:24;100631.59;;;17.44;57.52
42411;BME280;28056;51.112;0.984;2023-07-13T04:02:52;100634.61;;;17.00;59.16
42411;BME280;28056;51.112;0.984;2023-07-13T04:05:20;100631.10;;;16.20;62.18
42411;BME280;28056;51.112;0.984;2023-07-13T04:07:47;100629.30;;;16.49;62.04
42411;BME280;28056;51.112;0.984;2023-07-13T04:10:15;100632.42;;;16.56;62.98
42411;BME280;28056;51.112;0.984;2023-07-13T04:12:42;100633.39;;;16.56;62.13
42411;BME280;28056;51.112;0.984;2023-07-13T04:15:10;100635.72;;;16.65;61.41
42411;BME280;28056;51.112;0.984;2023-07-13T04:17:38;100641.00;;;16.77;60.77
42411;BME280;28056;51.112;0.984;2023-07-13T04:20:06;100644.29;;;16.28;61.35
42411;BME280;28056;51.112;0.984;2023-07-13T04:22:34;100644.72;;;16.72;60.38
42411;BME280;28056;51.112;0.984;2023-07-13T04:25:02;100646.52;;;16.50;60.19
42411;BME280;28056;51.112;0.984;2023-07-13T04:27:29;100647.66;;;16.64;59.59
42411;BME280;28056;51.112;0.984;2023-07-13T04:29:57;100649.27;;;16.68;59.75
42411;BME280;28056;51.112;0.984;2023-07-13T04:32:24;100650.22;;;16.73;59.43
42411;BME280;28056;51.112;0.984;2023-07-13T04:34:52;100649.85;;;16.71;59.46
42411;BME280;28056;51.112;0.984;2023-07-13T04:37:20;100654.42;;;16.70;59.79
42411;BME280;28056;51.112;0.984;2023-07-13T04:39:48;100660.67;;;16.50;60.74
42411;BME280;28056;51.112;0.984;2023-07-13T04:42:15;100667.45;;;16.64;60.94
42411;BME280;28056;51.112;0.984;2023-07-13T04:44:48;100667.28;;;16.66;59.77
42411;BME280;28056;51.112;0.984;2023-07-13T04:47:15;100671.02;;;16.79;59.12
42411;BME280;28056;51.112;0.984;2023-07-13T04:49:43;100670.03;;;16.73;59.73
42411;BME280;28056;51.112;0.984;2023-07-13T04:52:11;100674.37;;;16.45;60.93
42411;BME280;28056;51.112;0.984;2023-07-13T04:54:38;100673.88;;;16.76;59.93
42411;BME280;28056;51.112;0.984;2023-07-13T04:57:06;100676.34;;;16.72;60.92
42411;BME280;28056;51.112;0.984;2023-07-13T04:59:34;100680.63;;;16.60;61.50
42411;BME280;28056;51.112;0.984;2023-07-13T05:02:02;100683.07;;;16.43;61.80
42411;BME280;28056;51.112;0.984;2023-07-13T05:04:30;100684.23;;;16.47;61.86
42411;BME280;28056;51.112;0.984;2023-07-13T05:06:58;100683.23;;;16.55;61.68
42411;BME280;28056;51.112;0.984;2023-07-13T05:09:26;100682.66;;;16.42;62.12
42411;BME280;28056;51.112;0.984;2023-07-13T05:11:54;100679.43;;;16.45;62.12
42411;BME280;28056;51.112;0.984;2023-07-13T05:14:20;100683.26;;;16.51;62.38
42411;BME280;28056;51.112;0.984;2023-07-13T05:16:47;100684.84;;;16.61;62.26
42411;BME280;28056;51.112;0.984;2023-07-13T05:19:15;100682.74;;;16.66;62.19
42411;BME280;28056;51.112;0.984;2023-07-13T05:21:43;100685.98;;;16.31;63.00
42411;BME280;28056;51.112;0.984;2023-07-13T05:24:10;100681.22;;;16.83;61.63
42411;BME280;28056;51.112;0.984;2023-07-13T05:26:37;100678.98;;;16.14;64.05
42411;BME280;28056;51.112;0.984;2023-07-13T05:29:04;100679.44;;;16.81;62.48
42411;BME280;28056;51.112;0.984;2023-07-13T05:31:32;100687.82;;;16.43;63.51
42411;BME280;28056;51.112;0.984;2023-07-13T05:34:00;100689.32;;;16.40;64.00
42411;BME280;28056;51.112;0.984;2023-07-13T05:36:27;100691.22;;;16.43;64.25
42411;BME280;28056;51.112;0.984;2023-07-13T05:38:55;100696.47;;;16.35;64.62
42411;BME280;28056;51.112;0.984;2023-07-13T05:41:23;100695.40;;;16.51;64.45
42411;BME280;28056;51.112;0.984;2023-07-13T05:43:50;100693.90;;;16.76;63.99
42411;BME280;28056;51.112;0.984;2023-07-13T05:46:18;100696.43;;;16.51;64.80
42411;BME280;28056;51.112;0.984;2023-07-13T05:48:46;100701.11;;;16.72;64.10
42411;BME280;28056;51.112;0.984;2023-07-13T05:51:13;100703.48;;;16.78;64.38
42411;BME280;28056;51.112;0.984;2023-07-13T05:53:41;100701.20;;;16.43;65.15
42411;BME280;28056;51.112;0.984;2023-07-13T05:56:08;100702.85;;;16.18;65.03
42411;BME280;28056;51.112;0.984;2023-07-13T05:58:36;100703.74;;;15.79;65.91
42411;BME280;28056;51.112;0.984;2023-07-13T06:01:06;100707.07;;;15.70;67.59
42411;BME280;28056;51.112;0.984;2023-07-13T06:03:34;100711.78;;;15.98;67.21
42411;BME280;28056;51.112;0.984;2023-07-13T06:06:01;100713.21;;;16.36;67.70
42411;BME280;28056;51.112;0.984;2023-07-13T06:08:29;100716.78;;;16.10;67.82
42411;BME280;28056;51.112;0.984;2023-07-13T06:11:02;100723.45;;;16.11;67.44
42411;BME280;28056;51.112;0.984;2023-07-13T06:13:30;100726.65;;;16.35;67.37
42411;BME280;28056;51.112;0.984;2023-07-13T06:15:58;100731.55;;;16.07;67.72
42411;BME280;28056;51.112;0.984;2023-07-13T06:18:25;100730.66;;;16.36;66.61
42411;BME280;28056;51.112;0.984;2023-07-13T06:20:53;100734.33;;;16.16;67.13
42411;BME280;28056;51.112;0.984;2023-07-13T06:23:20;100739.94;;;16.02;68.75
42411;BME280;28056;51.112;0.984;2023-07-13T06:25:48;100737.69;;;15.98;68.13
42411;BME280;28056;51.112;0.984;2023-07-13T06:28:16;100741.07;;;15.85;69.16
42411;BME280;28056;51.112;0.984;2023-07-13T06:30:43;100744.76;;;15.75;70.14
42411;BME280;28056;51.112;0.984;2023-07-13T06:33:11;100743.52;;;16.15;68.23
42411;BME280;28056;51.112;0.984;2023-07-13T06:35:39;100741.96;;;16.88;67.33
42411;BME280;28056;51.112;0.984;2023-07-13T06:38:07;100745.04;;;16.47;68.01
42411;BME280;28056;51.112;0.984;2023-07-13T06:40:35;100745.03;;;16.82;65.98
42411;BME280;28056;51.112;0.984;2023-07-13T06:43:03;100750.97;;;16.60;67.68
42411;BME280;28056;51.112;0.984;2023-07-13T06:45:39;100754.61;;;15.98;68.99
42411;BME280;28056;51.112;0.984;2023-07-13T06:48:07;100756.31;;;16.11;67.99
42411;BME280;28056;51.112;0.984;2023-07-13T06:50:35;100753.83;;;16.64;66.83
42411;BME280;28056;51.112;0.984;2023-07-13T06:53:03;100762.49;;;16.24;69.19
42411;BME280;28056;51.112;0.984;2023-07-13T06:55:30;100762.65;;;16.50;68.36
42411;BME280;28056;51.112;0.984;2023-07-13T06:57:58;100762.14;;;16.59;67.06
42411;BME280;28056;51.112;0.984;2023-07-13T07:00:26;100767.69;;;16.65;65.94
42411;BME280;28056;51.112;0.984;2023-07-13T07:02:53;100774.86;;;16.20;67.99
42411;BME280;28056;51.112;0.984;2023-07-13T07:05:21;100773.02;;;16.58;67.72
42411;BME280;28056;51.112;0.984;2023-07-13T07:07:49;100773.41;;;16.71;66.80
42411;BME280;28056;51.112;0.984;2023-07-13T07:10:17;100777.49;;;16.87;67.62
42411;BME280;28056;51.112;0.984;2023-07-13T07:12:44;100781.36;;;16.85;66.77
42411;BME280;28056;51.112;0.984;2023-07-13T07:15:14;100783.53;;;17.55;63.56
42411;BME280;28056;51.112;0.984;2023-07-13T07:17:41;100780.98;;;17.28;65.32
42411;BME280;28056;51.112;0.984;2023-07-13T07:20:10;100775.52;;;17.20;65.37
42411;BME280;28056;51.112;0.984;2023-07-13T07:22:38;100774.94;;;17.25;64.83
42411;BME280;28056;51.112;0.984;2023-07-13T07:25:05;100771.26;;;17.84;62.77
42411;BME280;28056;51.112;0.984;2023-07-13T07:27:33;100770.63;;;17.63;62.72
42411;BME280;28056;51.112;0.984;2023-07-13T07:30:00;100774.05;;;16.72;63.92
42411;BME280;28056;51.112;0.984;2023-07-13T07:32:29;100778.83;;;16.91;64.93
42411;BME280;28056;51.112;0.984;2023-07-13T07:34:56;100779.13;;;16.71;64.36
42411;BME280;28056;51.112;0.984;2023-07-13T07:37:24;100779.91;;;17.21;64.79
42411;BME280;28056;51.112;0.984;2023-07-13T07:39:51;100784.38;;;17.09;64.69
42411;BME280;28056;51.112;0.984;2023-07-13T07:42:19;100780.69;;;18.34;62.93
42411;BME280;28056;51.112;0.984;2023-07-13T07:44:47;100783.61;;;17.92;61.80
42411;BME280;28056;51.112;0.984;2023-07-13T07:47:14;100787.28;;;18.63;59.22
42411;BME280;28056;51.112;0.984;2023-07-13T07:49:43;100784.60;;;18.88;59.26
42411;BME280;28056;51.112;0.984;2023-07-13T07:52:10;100788.40;;;18.34;59.07
42411;BME280;28056;51.112;0.984;2023-07-13T07:54:38;100790.90;;;19.06;57.27
42411;BME280;28056;51.112;0.984;2023-07-13T07:57:06;100790.29;;;18.09;59.42
42411;BME280;28056;51.112;0.984;2023-07-13T07:59:33;100794.24;;;18.87;59.36
42411;BME280;28056;51.112;0.984;2023-07-13T08:02:00;100795.13;;;18.74;57.14
42411;BME280;28056;51.112;0.984;2023-07-13T08:04:28;100794.94;;;18.50;58.30
42411;BME280;28056;51.112;0.984;2023-07-13T08:06:56;100795.46;;;18.45;57.89
42411;BME280;28056;51.112;0.984;2023-07-13T08:09:23;100789.60;;;18.72;59.45
42411;BME280;28056;51.112;0.984;2023-07-13T08:11:51;100790.04;;;19.13;56.55
42411;BME280;28056;51.112;0.984;2023-07-13T08:14:18;100788.36;;;19.29;57.59
42411;BME280;28056;51.112;0.984;2023-07-13T08:16:46;100790.08;;;19.25;57.09
42411;BME280;28056;51.112;0.984;2023-07-13T08:19:13;100791.84;;;19.70;55.59
42411;BME280;28056;51.112;0.984;2023-07-13T08:21:41;100792.04;;;19.51;55.10
42411;BME280;28056;51.112;0.984;2023-07-13T08:24:08;100794.50;;;20.12;56.12
42411;BME280;28056;51.112;0.984;2023-07-13T08:26:36;100799.44;;;19.41;53.11
42411;BME280;28056;51.112;0.984;2023-07-13T08:29:04;100800.73;;;19.86;52.95
42411;BME280;28056;51.112;0.984;2023-07-13T08:31:31;100801.26;;;19.33;54.99
42411;BME280;28056;51.112;0.984;2023-07-13T08:33:59;100801.77;;;19.58;54.34
42411;BME280;28056;51.112;0.984;2023-07-13T08:36:28;100798.44;;;19.87;52.43
42411;BME280;28056;51.112;0.984;2023-07-13T08:38:55;100799.52;;;19.61;53.84
42411;BME280;28056;51.112;0.984;2023-07-13T08:41:23;100795.38;;;19.11;53.09
42411;BME280;28056;51.112;0.984;2023-07-13T08:43:54;100800.91;;;19.92;52.63
42411;BME280;28056;51.112;0.984;2023-07-13T08:46:26;100804.79;;;19.72;53.79
42411;BME280;28056;51.112;0.984;2023-07-13T08:48:58;100799.96;;;20.43;50.85
42411;BME280;28056;51.112;0.984;2023-07-13T08:51:33;100801.13;;;20.43;50.44
42411;BME280;28056;51.112;0.984;2023-07-13T08:54:12;100799.43;;;19.96;53.37
42411;BME280;28056;51.112;0.984;2023-07-13T08:56:45;100798.20;;;20.08;53.12
42411;BME280;28056;51.112;0.984;2023-07-13T08:59:14;100804.82;;;20.33;49.79
42411;BME280;28056;51.112;0.984;2023-07-13T09:02:05;100801.91;;;20.56;52.49
42411;BME280;28056;51.112;0.984;2023-07-13T09:04:39;100801.91;;;19.99;52.84
42411;BME280;28056;51.112;0.984;2023-07-13T09:07:16;100803.16;;;20.17;52.61
42411;BME280;28056;51.112;0.984;2023-07-13T09:09:57;100797.47;;;20.83;51.41
42411;BME280;28056;51.112;0.984;2023-07-13T09:12:34;100796.31;;;20.32;50.02
42411;BME280;28056;51.112;0.984;2023-07-13T09:15:04;100796.78;;;20.53;50.60
42411;BME280;28056;51.112;0.984;2023-07-13T09:17:37;100791.96;;;21.19;50.27
42411;BME280;28056;51.112;0.984;2023-07-13T09:20:19;100795.68;;;21.19;49.23
42411;BME280;28056;51.112;0.984;2023-07-13T09:22:50;100795.21;;;20.75;50.80
42411;BME280;28056;51.112;0.984;2023-07-13T09:25:24;100792.20;;;20.56;48.97
42411;BME280;28056;51.112;0.984;2023-07-13T09:27:58;100793.85;;;20.29;50.09
42411;BME280;28056;51.112;0.984;2023-07-13T09:30:34;100791.59;;;20.36;49.65
42411;BME280;28056;51.112;0.984;2023-07-13T09:33:04;100800.35;;;20.51;48.58
42411;BME280;28056;51.112;0.984;2023-07-13T09:35:31;100802.33;;;19.88;52.36
42411;BME280;28056;51.112;0.984;2023-07-13T09:38:03;100805.50;;;19.77;55.88
42411;BME280;28056;51.112;0.984;2023-07-13T09:40:40;100804.94;;;20.35;54.88
42411;BME280;28056;51.112;0.984;2023-07-13T09:43:11;100805.51;;;19.75;54.84
42411;BME280;28056;51.112;0.984;2023-07-13T09:45:40;100807.84;;;20.48;53.55
42411;BME280;28056;51.112;0.984;2023-07-13T09:48:13;100806.60;;;21.38;55.93
42411;BME280;28056;51.112;0.984;2023-07-13T09:50:40;100802.51;;;21.93;56.21
42411;BME280;28056;51.112;0.984;2023-07-13T09:53:12;100798.65;;;22.00;52.71
42411;BME280;28056;51.112;0.984;2023-07-13T09:55:41;100796.19;;;22.68;54.08
42411;BME280;28056;51.112;0.984;2023-07-13T09:58:12;100798.41;;;21.50;49.71
42411;BME280;28056;51.112;0.984;2023-07-13T10:00:41;100808.51;;;22.10;49.65
42411;BME280;28056;51.112;0.984;2023-07-13T10:03:18;100804.61;;;21.61;50.27
42411;BME280;28056;51.112;0.984;2023-07-13T10:05:47;100812.71;;;21.84;49.68
42411;BME280;28056;51.112;0.984;2023-07-13T10:08:23;100815.33;;;21.73;51.16
42411;BME280;28056;51.112;0.984;2023-07-13T10:10:58;100814.71;;;21.66;51.24
42411;BME280;28056;51.112;0.984;2023-07-13T10:13:29;100820.97;;;21.14;49.03
42411;BME280;28056;51.112;0.984;2023-07-13T10:15:59;100816.46;;;21.93;53.20
42411;BME280;28056;51.112;0.984;2023-07-13T10:18:29;100817.07;;;22.03;49.88
42411;BME280;28056;51.112;0.984;2023-07-13T10:21:11;100818.97;;;20.83;50.12
42411;BME280;28056;51.112;0.984;2023-07-13T10:23:39;100812.37;;;21.79;50.13
42411;BME280;28056;51.112;0.984;2023-07-13T10:26:14;100817.48;;;22.54;50.30
42411;BME280;28056;51.112;0.984;2023-07-13T10:28:46;100826.63;;;20.41;48.58
42411;BME280;28056;51.112;0.984;2023-07-13T10:31:16;100827.50;;;20.59;51.97
42411;BME280;28056;51.112;0.984;2023-07-13T10:33:44;100832.63;;;21.20;51.17
42411;BME280;28056;51.112;0.984;2023-07-13T10:36:20;100833.80;;;20.22;50.53
42411;BME280;28056;51.112;0.984;2023-07-13T10:38:51;100838.65;;;19.68;52.32
42411;BME280;28056;51.112;0.984;2023-07-13T10:41:21;100841.45;;;19.89;54.32
42411;BME280;28056;51.112;0.984;2023-07-13T10:43:53;100842.30;;;20.76;53.49
42411;BME280;28056;51.112;0.984;2023-07-13T10:46:23;100845.69;;;21.69;53.67
42411;BME280;28056;51.112;0.984;2023-07-13T10:48:55;100842.67;;;21.14;50.40
42411;BME280;28056;51.112;0.984;2023-07-13T10:51:24;100838.95;;;22.43;52.54
42411;BME280;28056;51.112;0.984;2023-07-13T10:54:27;100838.95;;;22.90;52.07
42411;BME280;28056;51.112;0.984;2023-07-13T10:57:14;100836.15;;;23.56;51.88
42411;BME280;28056;51.112;0.984;2023-07-13T10:59:43;100833.85;;;22.96;45.35
42411;BME280;28056;51.112;0.984;2023-07-13T11:02:22;100836.54;;;22.12;47.08
42411;BME280;28056;51.112;0.984;2023-07-13T11:04:53;100835.66;;;22.14;48.10
42411;BME280;28056;51.112;0.984;2023-07-13T11:07:24;100828.31;;;21.69;48.28
42411;BME280;28056;51.112;0.984;2023-07-13T11:09:53;100823.34;;;22.66;51.76
42411;BME280;28056;51.112;0.984;2023-07-13T11:12:50;100816.13;;;22.31;51.06
42411;BME280;28056;51.112;0.984;2023-07-13T11:15:31;100817.62;;;21.96;47.83
42411;BME280;28056;51.112;0.984;2023-07-13T11:18:04;100810.41;;;21.71;52.66
42411;BME280;28056;51.112;0.984;2023-07-13T11:20:39;100819.46;;;21.32;54.94
42411;BME280;28056;51.112;0.984;2023-07-13T11:23:16;100827.68;;;19.98;59.94
42411;BME280;28056;51.112;0.984;2023-07-13T11:25:46;100835.25;;;20.81;62.11
42411;BME280;28056;51.112;0.984;2023-07-13T11:28:23;100836.23;;;19.67;63.96
42411;BME280;28056;51.112;0.984;2023-07-13T11:31:24;100834.78;;;19.42;66.16
42411;BME280;28056;51.112;0.984;2023-07-13T11:33:56;100827.79;;;19.42;65.09
42411;BME280;28056;51.112;0.984;2023-07-13T11:36:30;100823.91;;;19.31;65.71
42411;BME280;28056;51.112;0.984;2023-07-13T11:39:02;100823.38;;;19.64;69.05
42411;BME280;28056;51.112;0.984;2023-07-13T11:41:35;100819.72;;;18.67;67.99
42411;BME280;28056;51.112;0.984;2023-07-13T11:44:10;100813.61;;;18.65;67.17
42411;BME280;28056;51.112;0.984;2023-07-13T11:46:38;100810.83;;;18.22;67.58
42411;BME280;28056;51.112;0.984;2023-07-13T11:49:06;100817.10;;;18.46;69.76
42411;BME280;28056;51.112;0.984;2023-07-13T11:51:35;100815.98;;;18.89;65.70
42411;BME280;28056;51.112;0.984;2023-07-13T11:54:05;100825.51;;;18.47;66.30
42411;BME280;28056;51.112;0.984;2023-07-13T11:56:34;100815.40;;;18.76;67.63
42411;BME280;28056;51.112;0.984;2023-07-13T11:59:07;100820.69;;;17.79;70.52
42411;BME280;28056;51.112;0.984;2023-07-13T12:01:36;100822.29;;;16.97;74.80
42411;BME280;28056;51.112;0.984;2023-07-13T12:04:21;100825.40;;;16.68;74.36
42411;BME280;28056;51.112;0.984;2023-07-13T12:06:56;100828.71;;;17.65;74.25
42411;BME280;28056;51.112;0.984;2023-07-13T12:09:26;100829.67;;;18.38;71.52
42411;BME280;28056;51.112;0.984;2023-07-13T12:11:57;100826.50;;;18.57;72.29
42411;BME280;28056;51.112;0.984;2023-07-13T12:14:25;100824.19;;;19.14;69.78
42411;BME280;28056;51.112;0.984;2023-07-13T12:16:53;100822.50;;;19.46;67.53
42411;BME280;28056;51.112;0.984;2023-07-13T12:19:22;100826.99;;;18.77;70.77
42411;BME280;28056;51.112;0.984;2023-07-13T12:21:53;100823.71;;;19.26;69.43
42411;BME280;28056;51.112;0.984;2023-07-13T12:24:22;100822.62;;;20.17;72.67
42411;BME280;28056;51.112;0.984;2023-07-13T12:26:53;100822.37;;;20.31;74.76
42411;BME280;28056;51.112;0.984;2023-07-13T12:29:22;100818.32;;;20.73;73.03
42411;BME280;28056;51.112;0.984;2023-07-13T12:31:50;100820.95;;;21.89;74.15
42411;BME280;28056;51.112;0.984;2023-07-13T12:34:18;100814.88;;;21.92;69.89
42411;BME280;28056;51.112;0.984;2023-07-13T12:36:48;100812.28;;;21.36;71.00
42411;BME280;28056;51.112;0.984;2023-07-13T12:39:19;100816.65;;;21.87;65.67
42411;BME280;28056;51.112;0.984;2023-07-13T12:41:48;100814.93;;;20.54;64.41
42411;BME280;28056;51.112;0.984;2023-07-13T12:44:19;100814.84;;;20.82;63.48
42411;BME280;28056;51.112;0.984;2023-07-13T12:47:09;100814.60;;;20.39;62.53
42411;BME280;28056;51.112;0.984;2023-07-13T12:49:42;100810.44;;;20.71;60.89
42411;BME280;28056;51.112;0.984;2023-07-13T12:52:16;100813.16;;;21.40;65.20
42411;BME280;28056;51.112;0.984;2023-07-13T12:54:53;100810.13;;;20.56;67.68
42411;BME280;28056;51.112;0.984;2023-07-13T12:57:20;100803.51;;;20.71;55.73
42411;BME280;28056;51.112;0.984;2023-07-13T12:59:52;100809.04;;;19.82;60.71
42411;BME280;28056;51.112;0.984;2023-07-13T13:02:27;100811.77;;;19.70;59.90
42411;BME280;28056;51.112;0.984;2023-07-13T13:04:55;100810.03;;;19.70;60.56
42411;BME280;28056;51.112;0.984;2023-07-13T13:07:23;100805.46;;;20.40;60.97
42411;BME280;28056;51.112;0.984;2023-07-13T13:09:52;100806.75;;;20.51;64.79